Time;durP1;ratioP1;P1;durP2;ratioP2;P2;SDS_P1;SDS_P2;PMS_P1;PMS_P2;Temp;Humidity;BMP_temperature;BMP_pressure;BME280_temperature;BME280_humidity;BME280_pressure;Samples;Min_cycle;Max_cycle;Signal;HPM_P1;HPM_P2
2020/12/15 00:00:33;;;;;;;18.45;3.47;;;22.00;99.90;;;;;;5051102;28;20065;-78
2020/12/15 00:03:01;;;;;;;18.23;2.80;;;21.90;99.90;;;;;;5048606;28;20039;-77
2020/12/15 00:05:28;;;;;;;24.17;3.28;;;21.90;99.90;;;;;;5051202;28;20085;-78
2020/12/15 00:07:55;;;;;;;27.95;5.10;;;22.00;99.90;;;;;;5048130;28;20017;-77
2020/12/15 00:10:22;;;;;;;21.60;3.55;;;22.00;99.90;;;;;;5050254;28;20041;-78
2020/12/15 00:12:50;;;;;;;26.45;4.65;;;22.10;99.90;;;;;;5049696;28;20029;-79
2020/12/15 00:15:17;;;;;;;20.85;3.25;;;22.30;99.90;;;;;;5086469;22;20052;-78
2020/12/15 00:17:44;;;;;;;27.65;4.85;;;22.30;99.90;;;;;;5066867;22;20060;-78
2020/12/15 00:20:12;;;;;;;24.95;4.72;;;22.40;99.90;;;;;;5071396;28;20040;-78
2020/12/15 00:22:39;;;;;;;23.17;4.45;;;22.50;99.90;;;;;;5068174;22;20053;-78
2020/12/15 00:25:06;;;;;;;24.15;5.10;;;22.60;99.90;;;;;;5058044;28;20059;-77
2020/12/15 00:27:33;;;;;;;30.30;5.85;;;22.50;99.90;;;;;;5052090;28;20049;-78
2020/12/15 00:30:01;;;;;;;26.45;4.30;;;22.50;99.90;;;;;;5067866;28;20036;-78
2020/12/15 00:32:28;;;;;;;28.25;4.40;;;22.50;99.90;;;;;;5061528;22;20540;-79
2020/12/15 00:34:55;;;;;;;28.35;4.97;;;22.40;99.90;;;;;;5041882;28;20097;-79
2020/12/15 00:37:23;;;;;;;30.13;4.68;;;22.40;99.90;;;;;;5050213;28;20025;-79
2020/12/15 00:39:50;;;;;;;27.38;4.68;;;22.40;99.90;;;;;;5050522;28;20100;-79
2020/12/15 00:42:18;;;;;;;31.98;4.53;;;22.50;99.90;;;;;;5051276;28;20029;-79
2020/12/15 00:44:45;;;;;;;33.58;5.05;;;22.70;99.90;;;;;;5049185;28;20025;-79
2020/12/15 00:47:12;;;;;;;37.13;5.30;;;22.70;99.90;;;;;;5060522;22;20053;-79
2020/12/15 00:49:39;;;;;;;28.65;5.65;;;22.60;99.90;;;;;;5070051;28;20067;-80
2020/12/15 00:52:07;;;;;;;29.45;5.30;;;22.70;99.90;;;;;;5055592;28;20581;-79
2020/12/15 00:54:34;;;;;;;32.25;5.95;;;22.70;99.90;;;;;;5069430;28;20032;-80
2020/12/15 00:57:02;;;;;;;26.08;5.60;;;22.70;99.90;;;;;;5069890;28;20435;-80
2020/12/15 00:59:30;;;;;;;36.10;5.22;;;22.80;99.90;;;;;;5059589;28;20078;-78
2020/12/15 01:02:03;;;;;;;32.05;4.68;;;23.00;99.90;;;;;;5076666;28;20028;-79
2020/12/15 01:04:30;;;;;;;38.20;7.60;;;23.50;99.90;;;;;;5070957;28;20021;-77
2020/12/15 01:06:58;;;;;;;32.00;5.03;;;23.70;99.90;;;;;;5072069;28;20047;-78
2020/12/15 01:09:25;;;;;;;35.95;5.80;;;23.60;99.90;;;;;;5072238;28;20013;-77
2020/12/15 01:11:52;;;;;;;29.23;5.35;;;23.40;99.90;;;;;;5091838;28;20078;-79
2020/12/15 01:14:20;;;;;;;35.22;4.88;;;23.70;99.90;;;;;;5074729;28;20017;-80
2020/12/15 01:16:47;;;;;;;30.63;6.07;;;24.00;99.90;;;;;;5091290;28;20093;-79
2020/12/15 01:19:15;;;;;;;37.70;5.88;;;24.00;99.90;;;;;;5073218;28;20398;-76
2020/12/15 01:21:42;;;;;;;30.40;5.80;;;24.00;99.90;;;;;;5066769;22;20056;-80
2020/12/15 01:24:09;;;;;;;28.30;5.43;;;23.90;99.90;;;;;;5049264;28;20044;-79
2020/12/15 01:26:37;;;;;;;37.45;6.40;;;24.10;99.90;;;;;;5044327;28;20021;-81
2020/12/15 01:29:04;;;;;;;29.15;5.95;;;24.10;99.90;;;;;;5054846;28;20028;-80
2020/12/15 01:31:31;;;;;;;26.75;5.55;;;24.10;99.90;;;;;;5059938;28;20385;-81
2020/12/15 01:33:59;;;;;;;29.15;5.15;;;24.50;99.90;;;;;;5042367;28;20032;-84
2020/12/15 01:36:33;;;;;;;25.58;4.63;;;25.00;99.90;;;;;;5060569;28;20029;-85
2020/12/15 01:39:00;;;;;;;32.22;5.22;;;25.30;99.90;;;;;;5049795;28;20029;-82
2020/12/15 01:41:28;;;;;;;24.50;4.80;;;25.10;99.90;;;;;;5046651;28;20029;-80
2020/12/15 01:44:01;;;;;;;29.67;5.90;;;25.10;99.90;;;;;;5048044;28;20132;-83
2020/12/15 01:46:29;;;;;;;24.00;4.60;;;24.80;99.90;;;;;;5047179;28;20075;-85
2020/12/15 01:48:57;;;;;;;28.23;5.18;;;25.10;99.90;;;;;;5049307;28;20116;-85
2020/12/15 01:51:27;;;;;;;25.33;5.75;;;25.80;99.90;;;;;;5050948;28;20731;-87
2020/12/15 01:53:55;;;;;;;25.23;5.13;;;26.10;99.90;;;;;;5051748;28;20098;-88
2020/12/15 01:56:23;;;;;;;30.60;5.63;;;26.30;99.90;;;;;;5052125;28;20078;-82
2020/12/15 01:58:55;;;;;;;26.25;5.43;;;26.10;99.90;;;;;;5052406;28;20033;-87
2020/12/15 02:01:23;;;;;;;29.30;4.53;;;25.80;99.90;;;;;;5054797;28;20871;-87
2020/12/15 02:03:52;;;;;;;23.17;4.57;;;26.20;99.90;;;;;;5034727;28;20032;-82
2020/12/15 02:06:20;;;;;;;21.73;4.07;;;26.10;99.90;;;;;;5053879;28;20501;-86
2020/12/15 02:08:48;;;;;;;31.27;4.95;;;25.90;99.90;;;;;;5052476;28;20025;-83
2020/12/15 02:11:16;;;;;;;28.15;5.85;;;25.50;99.90;;;;;;5052321;28;20163;-85
2020/12/15 02:13:45;;;;;;;27.15;5.90;;;25.20;99.90;;;;;;5052114;28;20032;-83
2020/12/15 02:16:14;;;;;;;22.65;4.97;;;25.00;99.90;;;;;;5053077;28;20037;-82
2020/12/15 02:18:41;;;;;;;23.35;5.15;;;25.20;99.90;;;;;;5051402;28;20382;-84
2020/12/15 02:21:09;;;;;;;29.27;5.68;;;25.10;99.90;;;;;;5054343;28;20057;-83
2020/12/15 02:23:37;;;;;;;27.85;5.22;;;25.40;99.90;;;;;;5066126;22;20533;-83
2020/12/15 02:26:06;;;;;;;29.73;4.97;;;25.00;99.90;;;;;;5051838;23;20045;-86
2020/12/15 02:28:35;;;;;;;27.25;5.70;;;25.10;99.90;;;;;;5047232;28;20100;-84
2020/12/15 02:31:03;;;;;;;25.40;5.60;;;25.10;99.90;;;;;;5069789;22;20102;-83
2020/12/15 02:33:30;;;;;;;24.83;4.68;;;25.40;99.90;;;;;;5051752;28;20017;-84
2020/12/15 02:35:59;;;;;;;25.88;5.97;;;25.10;99.90;;;;;;5036285;28;20086;-84
2020/12/15 02:40:52;;;;;;;25.65;4.65;;;24.10;99.90;;;;;;5090385;22;20056;-81
2020/12/15 02:43:19;;;;;;;29.52;6.13;;;24.20;99.90;;;;;;5069212;28;20381;-85
2020/12/15 02:45:47;;;;;;;25.88;4.55;;;24.20;99.90;;;;;;5070038;28;20032;-86
2020/12/15 02:48:14;;;;;;;25.13;4.60;;;24.30;99.90;;;;;;5066956;28;21486;-84
2020/12/15 02:50:41;;;;;;;30.15;5.75;;;24.40;99.90;;;;;;5072243;28;20020;-88
2020/12/15 02:53:09;;;;;;;26.45;4.82;;;24.50;99.90;;;;;;5069588;28;20036;-83
2020/12/15 02:55:36;;;;;;;29.50;4.65;;;24.60;99.90;;;;;;5081994;22;20064;-79
2020/12/15 02:58:03;;;;;;;25.58;4.57;;;24.70;99.90;;;;;;5034718;28;20040;-75
2020/12/15 03:00:34;;;;;;;24.08;4.30;;;24.70;99.90;;;;;;5046063;28;20498;-79
2020/12/15 03:03:07;;;;;;;27.25;4.82;;;24.60;99.90;;;;;;5038661;28;20388;-79
2020/12/15 03:05:34;;;;;;;35.80;5.80;;;24.50;99.90;;;;;;5040118;28;20052;-79
2020/12/15 03:08:02;;;;;;;31.55;6.72;;;24.40;99.90;;;;;;5045043;28;20037;-80
2020/12/15 03:10:29;;;;;;;33.35;5.38;;;24.20;99.90;;;;;;5048175;28;20021;-81
2020/12/15 03:12:56;;;;;;;26.83;4.50;;;24.00;99.90;;;;;;5047868;28;20033;-80
2020/12/15 03:15:23;;;;;;;26.40;5.30;;;24.00;99.90;;;;;;5047040;28;20028;-81
2020/12/15 03:17:51;;;;;;;27.52;4.82;;;24.00;99.90;;;;;;5029384;28;20056;-81
2020/12/15 03:20:18;;;;;;;27.23;4.65;;;24.20;99.90;;;;;;5048700;28;20025;-80
2020/12/15 03:22:46;;;;;;;29.10;5.45;;;24.50;99.90;;;;;;5039888;28;20072;-81
2020/12/15 03:25:19;;;;;;;28.83;4.80;;;24.60;99.90;;;;;;5032754;28;20040;-81
2020/12/15 03:27:48;;;;;;;28.38;5.63;;;24.40;99.90;;;;;;5033025;28;20029;-81
2020/12/15 03:30:15;;;;;;;28.02;5.43;;;24.00;99.90;;;;;;5063251;22;20049;-82
2020/12/15 03:32:42;;;;;;;26.25;5.20;;;23.80;99.90;;;;;;5049631;28;20051;-82
2020/12/15 03:35:09;;;;;;;30.40;5.38;;;23.70;99.90;;;;;;5050988;28;20040;-85
2020/12/15 03:37:37;;;;;;;27.23;5.18;;;23.60;99.90;;;;;;5049278;28;20029;-86
2020/12/15 03:40:05;;;;;;;29.20;5.38;;;23.60;99.90;;;;;;5050274;28;20389;-83
2020/12/15 03:42:32;;;;;;;30.55;5.93;;;23.50;99.90;;;;;;5067761;28;20592;-81
2020/12/15 03:44:59;;;;;;;23.52;4.97;;;23.40;99.90;;;;;;5046472;28;20025;-90
2020/12/15 03:47:27;;;;;;;23.70;4.38;;;23.30;99.90;;;;;;5048209;28;20103;-84
2020/12/15 03:49:57;;;;;;;25.00;5.45;;;23.00;99.90;;;;;;5068869;28;20020;-83
2020/12/15 03:52:24;;;;;;;30.63;5.30;;;23.00;99.90;;;;;;5071323;28;20035;-83
2020/12/15 03:54:51;;;;;;;39.92;5.78;;;23.00;99.90;;;;;;5068847;28;20549;-82
2020/12/15 03:57:19;;;;;;;33.10;5.28;;;22.90;99.90;;;;;;5061172;28;20119;-82
2020/12/15 03:59:46;;;;;;;33.28;5.90;;;23.00;99.90;;;;;;5065675;28;20028;-79
2020/12/15 04:02:13;;;;;;;28.98;6.03;;;23.10;99.90;;;;;;5072425;28;20373;-78
2020/12/15 04:04:40;;;;;;;29.00;5.70;;;23.10;99.90;;;;;;5065129;28;20366;-80
2020/12/15 04:07:08;;;;;;;33.03;5.68;;;23.20;99.90;;;;;;5072190;28;20031;-80
2020/12/15 04:09:35;;;;;;;33.55;5.45;;;23.20;99.90;;;;;;5053787;28;20029;-82
2020/12/15 04:12:02;;;;;;;29.55;4.97;;;23.30;99.90;;;;;;5051126;28;20029;-83
2020/12/15 04:14:29;;;;;;;35.72;6.25;;;23.30;99.90;;;;;;5049436;28;20029;-82
2020/12/15 04:16:57;;;;;;;29.00;4.40;;;23.40;99.90;;;;;;5061546;28;20051;-83
2020/12/15 04:19:24;;;;;;;28.33;5.35;;;23.50;99.90;;;;;;5055151;28;20060;-83
2020/12/15 04:21:51;;;;;;;33.20;5.97;;;23.50;99.90;;;;;;5052062;28;20498;-82
2020/12/15 04:24:19;;;;;;;28.27;5.95;;;23.50;99.90;;;;;;5049387;28;20520;-81
2020/12/15 04:26:46;;;;;;;37.63;6.88;;;23.30;99.90;;;;;;5050425;28;20025;-82
2020/12/15 04:29:13;;;;;;;35.92;6.28;;;23.30;99.90;;;;;;5048817;28;20053;-80
2020/12/15 04:31:40;;;;;;;37.22;5.68;;;23.40;99.90;;;;;;5084911;22;20521;-78
2020/12/15 04:34:08;;;;;;;30.33;6.75;;;23.50;99.90;;;;;;5072839;22;20037;-82
2020/12/15 04:36:35;;;;;;;30.25;5.60;;;23.60;99.90;;;;;;5048910;28;20071;-82
2020/12/15 04:39:04;;;;;;;32.88;6.57;;;23.60;99.90;;;;;;5067052;22;20040;-80
2020/12/15 04:41:32;;;;;;;33.05;5.40;;;23.60;99.90;;;;;;5052248;28;20149;-78
2020/12/15 04:44:01;;;;;;;28.95;4.95;;;23.70;99.90;;;;;;5045582;28;20501;-81
2020/12/15 04:46:31;;;;;;;28.55;5.38;;;23.70;99.90;;;;;;5049269;22;20021;-80
2020/12/15 04:49:07;;;;;;;38.30;6.85;;;23.70;99.90;;;;;;5054079;28;20108;-80
2020/12/15 04:51:58;;;;;;;29.88;6.18;;;23.80;99.90;;;;;;5060646;28;20040;-79
2020/12/15 04:54:35;;;;;;;33.45;7.97;;;23.80;99.90;;;;;;5062401;28;20036;-78
2020/12/15 04:57:04;;;;;;;27.80;5.97;;;23.80;99.90;;;;;;5075508;28;20033;-79
2020/12/15 04:59:34;;;;;;;30.23;5.22;;;23.80;99.90;;;;;;5080438;28;20040;-80
2020/12/15 05:02:05;;;;;;;26.30;5.63;;;23.80;99.90;;;;;;5070981;28;20114;-79
2020/12/15 05:04:40;;;;;;;28.50;5.93;;;23.70;99.90;;;;;;5070888;22;20052;-79
2020/12/15 05:07:09;;;;;;;32.42;5.43;;;23.50;99.90;;;;;;5059874;28;20023;-79
2020/12/15 05:09:37;;;;;;;25.00;4.47;;;23.50;99.90;;;;;;5048025;28;20020;-80
2020/12/15 05:12:05;;;;;;;33.90;5.57;;;23.50;99.90;;;;;;5032965;28;20029;-79
2020/12/15 05:14:33;;;;;;;30.48;4.50;;;23.40;99.90;;;;;;5050870;28;20057;-79
2020/12/15 05:17:00;;;;;;;30.95;5.80;;;23.50;99.90;;;;;;5051074;28;20040;-79
2020/12/15 05:19:28;;;;;;;37.28;6.20;;;23.50;99.90;;;;;;5030959;28;20021;-81
2020/12/15 05:21:59;;;;;;;26.05;4.65;;;23.50;99.90;;;;;;5050102;28;20071;-80
2020/12/15 05:24:30;;;;;;;26.05;6.18;;;23.50;99.90;;;;;;5049107;28;20056;-79
2020/12/15 05:26:57;;;;;;;28.88;5.80;;;23.50;99.90;;;;;;5053991;28;20497;-80
2020/12/15 05:29:25;;;;;;;29.67;5.18;;;23.30;99.90;;;;;;5052264;28;20029;-79
2020/12/15 05:31:54;;;;;;;33.25;6.43;;;23.50;99.90;;;;;;5052317;28;20025;-80
2020/12/15 05:34:26;;;;;;;38.55;6.55;;;23.40;99.90;;;;;;5048218;28;20072;-82
2020/12/15 05:37:01;;;;;;;31.63;4.68;;;23.40;99.90;;;;;;5066415;23;20436;-82
2020/12/15 05:39:29;;;;;;;23.42;5.15;;;23.40;99.90;;;;;;5058690;28;20090;-82
2020/12/15 05:42:08;;;;;;;31.73;6.03;;;23.40;99.90;;;;;;5056733;28;20040;-80
2020/12/15 05:44:37;;;;;;;28.23;5.45;;;23.40;99.90;;;;;;5072952;28;20027;-81
2020/12/15 05:47:09;;;;;;;22.05;4.03;;;23.40;99.90;;;;;;5071921;28;20033;-83
2020/12/15 05:49:41;;;;;;;33.22;5.90;;;23.30;99.90;;;;;;5071259;28;20036;-80
2020/12/15 05:52:09;;;;;;;33.40;5.35;;;23.30;99.90;;;;;;5072764;28;20434;-82
2020/12/15 05:54:37;;;;;;;29.08;5.72;;;23.20;99.90;;;;;;5072139;28;20070;-82
2020/12/15 05:57:06;;;;;;;31.13;5.45;;;23.30;99.90;;;;;;5074585;28;20025;-85
2020/12/15 05:59:35;;;;;;;22.40;5.20;;;23.30;99.90;;;;;;5055128;28;20086;-85
2020/12/15 06:02:05;;;;;;;32.53;5.22;;;23.20;99.90;;;;;;5068573;28;20055;-83
2020/12/15 06:04:33;;;;;;;28.77;4.97;;;23.20;99.90;;;;;;5070348;28;20090;-84
2020/12/15 06:07:02;;;;;;;28.58;5.60;;;23.20;99.90;;;;;;5056624;28;20040;-85
2020/12/15 06:09:31;;;;;;;30.10;6.07;;;23.10;99.90;;;;;;5071739;28;20017;-83
2020/12/15 06:11:58;;;;;;;28.50;5.53;;;23.10;99.90;;;;;;5073714;28;20485;-82
2020/12/15 06:14:28;;;;;;;29.38;5.30;;;23.10;99.90;;;;;;5071577;28;20544;-83
2020/12/15 06:16:55;;;;;;;22.83;4.72;;;23.10;99.90;;;;;;5067323;28;20025;-86
2020/12/15 06:19:24;;;;;;;27.05;4.60;;;23.00;99.90;;;;;;5065921;28;20366;-86
2020/12/15 06:21:57;;;;;;;36.25;6.88;;;22.90;99.90;;;;;;5071907;28;20063;-82
2020/12/15 06:24:25;;;;;;;32.35;6.38;;;22.90;99.90;;;;;;5067830;28;20331;-83
2020/12/15 06:27:01;;;;;;;24.75;5.28;;;22.90;99.90;;;;;;5059396;28;20100;-83
2020/12/15 06:29:39;;;;;;;29.42;5.57;;;22.90;99.90;;;;;;5067597;28;20508;-84
2020/12/15 06:32:18;;;;;;;30.23;4.88;;;23.00;99.90;;;;;;5068682;28;20021;-84
2020/12/15 06:34:51;;;;;;;31.33;6.50;;;22.90;99.90;;;;;;5064699;28;20066;-83
2020/12/15 06:39:59;;;;;;;27.90;5.35;;;23.00;99.90;;;;;;5069963;22;20055;-87
2020/12/15 06:42:27;;;;;;;28.48;5.07;;;23.00;99.90;;;;;;5075062;22;20056;-82
2020/12/15 06:47:28;;;;;;;37.07;5.83;;;23.00;99.90;;;;;;5080687;22;20072;-81
2020/12/15 06:49:55;;;;;;;31.17;5.97;;;23.00;99.90;;;;;;5068236;28;20051;-75
2020/12/15 06:52:29;;;;;;;25.63;4.32;;;23.00;99.90;;;;;;5073516;28;20069;-78
2020/12/15 06:54:59;;;;;;;28.75;4.95;;;23.00;99.90;;;;;;5070561;22;20124;-78
2020/12/15 06:57:36;;;;;;;25.20;4.18;;;23.00;99.90;;;;;;5056601;28;20030;-79
2020/12/15 07:00:12;;;;;;;34.83;5.78;;;23.00;99.90;;;;;;5050059;28;20124;-79
2020/12/15 07:02:44;;;;;;;36.83;6.50;;;23.00;99.90;;;;;;5037494;28;20017;-78
2020/12/15 07:05:18;;;;;;;34.55;6.07;;;23.00;99.90;;;;;;5053196;28;20501;-78
2020/12/15 07:08:15;;;;;;;26.67;5.07;;;23.00;99.90;;;;;;5034860;28;20025;-77
2020/12/15 07:10:43;;;;;;;26.30;5.40;;;22.90;99.90;;;;;;5028895;22;20172;-77
2020/12/15 07:13:14;;;;;;;33.60;5.65;;;22.80;99.90;;;;;;5052443;28;20033;-80
2020/12/15 07:15:41;;;;;;;32.60;6.13;;;22.80;99.90;;;;;;5063339;28;20037;-83
2020/12/15 07:18:09;;;;;;;30.75;6.20;;;22.70;99.90;;;;;;5067882;28;20477;-79
2020/12/15 07:20:36;;;;;;;35.13;6.75;;;22.70;99.90;;;;;;5048295;28;20044;-78
2020/12/15 07:23:03;;;;;;;30.38;5.07;;;22.70;99.90;;;;;;5052278;28;20025;-79
2020/12/15 07:25:30;;;;;;;30.42;6.75;;;22.70;99.90;;;;;;5062486;28;20021;-78
2020/12/15 07:27:58;;;;;;;31.92;7.70;;;22.70;99.90;;;;;;5066549;28;20025;-78
2020/12/15 07:30:25;;;;;;;33.88;7.05;;;22.70;99.90;;;;;;5052809;28;20032;-79
2020/12/15 07:32:53;;;;;;;38.15;6.40;;;22.60;99.90;;;;;;5053018;28;20037;-78
2020/12/15 07:35:25;;;;;;;30.63;5.38;;;22.50;99.90;;;;;;5059945;28;20397;-80
2020/12/15 07:37:58;;;;;;;37.55;6.07;;;22.40;99.90;;;;;;5058409;28;20029;-80
2020/12/15 07:40:30;;;;;;;38.60;5.90;;;22.30;99.90;;;;;;5062640;28;20029;-80
2020/12/15 07:43:00;;;;;;;35.95;6.18;;;22.30;99.90;;;;;;5052237;28;20383;-79
2020/12/15 07:45:32;;;;;;;34.10;6.40;;;22.30;99.90;;;;;;5068542;22;20087;-79
2020/12/15 07:48:03;;;;;;;29.90;5.05;;;22.30;99.90;;;;;;5035057;28;20032;-81
2020/12/15 07:50:32;;;;;;;39.53;6.38;;;22.20;99.90;;;;;;5048049;28;20021;-79
2020/12/15 07:53:12;;;;;;;30.70;5.20;;;22.20;99.90;;;;;;5046085;28;20087;-77
2020/12/15 07:55:39;;;;;;;30.48;6.05;;;22.20;99.90;;;;;;5041525;28;20398;-77
2020/12/15 07:58:15;;;;;;;30.63;5.22;;;22.10;99.90;;;;;;5052040;28;20017;-77
2020/12/15 08:00:43;;;;;;;26.80;6.05;;;22.10;99.90;;;;;;5051881;28;20394;-77
2020/12/15 08:03:10;;;;;;;27.23;5.22;;;22.10;99.90;;;;;;5051902;28;20035;-77
2020/12/15 08:05:38;;;;;;;31.15;5.18;;;22.10;99.90;;;;;;5039798;28;20031;-78
2020/12/15 08:08:05;;;;;;;28.88;5.85;;;22.10;99.90;;;;;;5052233;28;20025;-77
2020/12/15 08:10:35;;;;;;;26.98;4.78;;;22.00;99.90;;;;;;5051970;28;20482;-77
2020/12/15 08:13:04;;;;;;;24.85;4.78;;;22.00;99.90;;;;;;5051307;28;20094;-78
2020/12/15 08:15:41;;;;;;;27.30;4.78;;;21.90;99.90;;;;;;5032518;28;20129;-78
2020/12/15 08:18:12;;;;;;;24.30;3.95;;;21.90;99.90;;;;;;5051400;28;20028;-78
2020/12/15 08:20:42;;;;;;;34.28;6.05;;;21.90;99.90;;;;;;5049824;28;20043;-78
2020/12/15 08:23:14;;;;;;;32.00;5.75;;;21.90;99.90;;;;;;5051869;28;20025;-78
2020/12/15 08:25:46;;;;;;;20.42;4.85;;;21.90;99.90;;;;;;5051976;28;20025;-78
2020/12/15 08:28:22;;;;;;;24.15;4.20;;;21.80;99.90;;;;;;5052034;28;20021;-78
2020/12/15 08:30:50;;;;;;;34.88;6.80;;;21.80;99.90;;;;;;5051119;28;20033;-78
2020/12/15 08:33:31;;;;;;;36.58;4.88;;;21.80;99.90;;;;;;5051965;28;20366;-80
2020/12/15 08:35:59;;;;;;;33.40;6.53;;;21.80;99.90;;;;;;5051456;28;20040;-78
2020/12/15 08:38:27;;;;;;;32.78;5.25;;;21.70;99.90;;;;;;5051738;28;20017;-78
2020/12/15 08:41:00;;;;;;;33.60;5.45;;;21.70;99.90;;;;;;5051814;28;20032;-78
2020/12/15 08:43:28;;;;;;;35.00;6.47;;;21.70;99.90;;;;;;5051833;28;20056;-78
2020/12/15 08:45:56;;;;;;;35.30;5.63;;;21.70;99.90;;;;;;5046274;22;20060;-79
2020/12/15 08:48:26;;;;;;;31.90;6.05;;;21.70;99.90;;;;;;5079778;22;20468;-78
2020/12/15 08:50:54;;;;;;;33.05;5.38;;;21.70;99.90;;;;;;5050598;28;20040;-79
2020/12/15 08:53:22;;;;;;;26.52;5.07;;;21.70;99.90;;;;;;5068217;22;20041;-80
2020/12/15 08:55:50;;;;;;;32.42;5.95;;;21.70;99.90;;;;;;5051244;28;20041;-80
2020/12/15 08:58:19;;;;;;;37.08;7.63;;;21.70;99.90;;;;;;5051108;28;20021;-80
2020/12/15 09:00:47;;;;;;;28.25;5.32;;;21.60;99.90;;;;;;5049397;28;20033;-79
2020/12/15 09:03:16;;;;;;;33.67;5.18;;;21.70;99.90;;;;;;5072235;22;20060;-79
2020/12/15 09:05:58;;;;;;;29.60;6.38;;;21.70;99.90;;;;;;5056952;28;20384;-77
2020/12/15 09:08:27;;;;;;;30.33;5.30;;;21.70;99.90;;;;;;5075035;28;20024;-77
2020/12/15 09:10:58;;;;;;;29.08;5.93;;;21.60;99.90;;;;;;5070764;28;20489;-77
2020/12/15 09:13:27;;;;;;;30.00;5.78;;;21.60;99.90;;;;;;5070781;28;20029;-78
2020/12/15 09:15:56;;;;;;;37.28;6.03;;;21.60;99.90;;;;;;5053969;28;20033;-78
2020/12/15 09:18:34;;;;;;;31.17;5.60;;;21.60;99.90;;;;;;5087465;22;20024;-77
2020/12/15 09:21:15;;;;;;;30.33;6.65;;;21.60;99.90;;;;;;5031146;28;20120;-78
2020/12/15 09:23:50;;;;;;;35.60;6.32;;;21.60;99.90;;;;;;5025172;28;20093;-75
2020/12/15 09:26:22;;;;;;;32.25;5.95;;;21.60;99.90;;;;;;5022141;28;20029;-76
2020/12/15 09:28:50;;;;;;;33.47;5.78;;;21.60;99.90;;;;;;5013217;28;20022;-75
2020/12/15 09:31:19;;;;;;;29.42;4.88;;;21.70;99.90;;;;;;5031406;28;20109;-77
2020/12/15 09:33:47;;;;;;;26.17;4.40;;;21.70;99.90;;;;;;5031581;28;20021;-77
2020/12/15 09:36:16;;;;;;;33.05;5.40;;;21.70;99.90;;;;;;5030942;28;20037;-75
2020/12/15 09:38:46;;;;;;;29.00;5.10;;;21.70;99.90;;;;;;5027705;28;20022;-74
2020/12/15 09:41:14;;;;;;;26.58;4.75;;;21.70;99.90;;;;;;5033459;28;20018;-75
2020/12/15 09:43:41;;;;;;;29.13;4.97;;;21.70;99.90;;;;;;5031397;28;20029;-75
2020/12/15 09:46:08;;;;;;;33.67;5.05;;;21.80;99.90;;;;;;5013014;28;20025;-75
2020/12/15 09:48:35;;;;;;;38.17;7.72;;;21.80;99.90;;;;;;5030935;28;20036;-75
2020/12/15 09:51:03;;;;;;;27.17;6.05;;;21.80;99.90;;;;;;5030795;28;20039;-75
2020/12/15 09:53:31;;;;;;;33.35;5.03;;;21.80;99.90;;;;;;5065317;22;20135;-75
2020/12/15 09:55:59;;;;;;;25.00;5.78;;;21.80;99.90;;;;;;5050858;28;20033;-76
2020/12/15 09:58:28;;;;;;;30.63;5.43;;;21.80;99.90;;;;;;5048161;28;20087;-75
2020/12/15 10:00:56;;;;;;;32.80;4.63;;;21.80;99.90;;;;;;5050663;28;20025;-76
2020/12/15 10:03:23;;;;;;;29.90;5.20;;;21.80;99.90;;;;;;5047478;28;20468;-76
2020/12/15 10:05:50;;;;;;;28.40;4.70;;;21.80;99.90;;;;;;5050483;28;20017;-77
2020/12/15 10:08:17;;;;;;;30.80;6.32;;;21.80;99.90;;;;;;5049686;28;20040;-76
2020/12/15 10:10:45;;;;;;;33.55;7.10;;;21.80;99.90;;;;;;5044412;28;20211;-77
2020/12/15 10:13:12;;;;;;;37.90;6.32;;;21.80;99.90;;;;;;5074352;28;20048;-77
2020/12/15 10:15:40;;;;;;;33.38;6.72;;;21.80;99.90;;;;;;5073719;28;20037;-76
2020/12/15 10:18:09;;;;;;;35.13;6.85;;;21.80;99.90;;;;;;5065811;28;20082;-77
2020/12/15 10:20:37;;;;;;;37.58;5.20;;;21.80;99.90;;;;;;5063514;28;20024;-77
2020/12/15 10:23:04;;;;;;;32.88;5.75;;;21.80;99.90;;;;;;5074372;28;20024;-77
2020/12/15 10:25:32;;;;;;;43.83;6.38;;;21.80;99.90;;;;;;5074723;28;20029;-76
2020/12/15 10:27:59;;;;;;;38.15;6.30;;;21.80;99.90;;;;;;5074380;28;20017;-77
2020/12/15 10:30:26;;;;;;;38.58;7.28;;;21.70;99.90;;;;;;5072571;28;20013;-76
2020/12/15 10:32:53;;;;;;;36.00;5.38;;;21.70;99.90;;;;;;5072229;28;20016;-77
2020/12/15 10:35:21;;;;;;;32.05;5.85;;;21.70;99.90;;;;;;5075563;28;20016;-77
2020/12/15 10:37:48;;;;;;;37.50;6.40;;;21.70;99.90;;;;;;5074406;28;20028;-76
2020/12/15 10:40:15;;;;;;;46.50;6.18;;;21.70;99.90;;;;;;5073681;28;20017;-76
2020/12/15 10:42:43;;;;;;;29.85;4.82;;;21.70;99.90;;;;;;5055823;28;20024;-76
2020/12/15 10:45:11;;;;;;;28.42;4.85;;;21.70;99.90;;;;;;5064436;28;20025;-76
2020/12/15 10:47:38;;;;;;;27.38;4.53;;;21.70;99.90;;;;;;5087906;28;20488;-76
2020/12/15 10:50:05;;;;;;;28.45;5.65;;;21.70;99.90;;;;;;5072884;28;20040;-76
2020/12/15 10:52:33;;;;;;;38.88;6.60;;;21.60;99.90;;;;;;5088925;22;20060;-76
2020/12/15 10:55:00;;;;;;;37.08;5.82;;;21.60;99.90;;;;;;5077930;22;20089;-77
2020/12/15 10:57:27;;;;;;;32.83;6.60;;;21.60;99.90;;;;;;5081667;22;20526;-77
2020/12/15 10:59:55;;;;;;;30.20;6.20;;;21.60;99.90;;;;;;5083609;23;20514;-76
2020/12/15 11:02:22;;;;;;;23.50;4.53;;;21.60;99.90;;;;;;5050646;28;20091;-77
2020/12/15 11:04:49;;;;;;;24.48;5.05;;;21.60;99.90;;;;;;5053567;28;20017;-76
2020/12/15 11:07:16;;;;;;;26.85;5.18;;;21.60;99.90;;;;;;5052816;28;20029;-76
2020/12/15 11:09:44;;;;;;;26.55;4.80;;;21.60;99.90;;;;;;5071633;22;20037;-77
2020/12/15 11:12:11;;;;;;;28.85;4.25;;;21.60;99.90;;;;;;5065624;28;20500;-77
2020/12/15 11:14:38;;;;;;;25.00;5.55;;;21.60;99.90;;;;;;5039454;28;20048;-76
2020/12/15 11:17:05;;;;;;;18.33;4.03;;;21.60;99.90;;;;;;5061408;28;20037;-76
2020/12/15 11:19:33;;;;;;;25.98;4.75;;;21.60;99.90;;;;;;5073155;28;20469;-76
2020/12/15 11:22:00;;;;;;;27.10;4.88;;;21.50;99.90;;;;;;5054986;28;20027;-76
2020/12/15 11:24:28;;;;;;;27.33;4.65;;;21.60;99.90;;;;;;5071883;28;20070;-76
2020/12/15 11:26:56;;;;;;;29.27;5.07;;;21.50;99.90;;;;;;5044004;23;20042;-77
2020/12/15 11:29:23;;;;;;;31.55;5.70;;;21.60;99.90;;;;;;5053143;28;20035;-77
2020/12/15 11:31:53;;;;;;;26.52;5.00;;;21.50;99.90;;;;;;5051858;28;20025;-77
2020/12/15 11:34:21;;;;;;;31.77;5.78;;;21.50;99.90;;;;;;5050908;28;20029;-76
2020/12/15 11:36:56;;;;;;;30.73;6.65;;;21.60;99.90;;;;;;5072397;28;20555;-76
2020/12/15 11:39:23;;;;;;;37.30;5.55;;;21.60;99.90;;;;;;5055383;28;20059;-77
2020/12/15 11:41:51;;;;;;;41.85;7.22;;;21.60;99.90;;;;;;5071260;28;20036;-76
2020/12/15 11:44:19;;;;;;;37.75;5.43;;;21.60;99.90;;;;;;5072281;28;20021;-76
2020/12/15 11:46:47;;;;;;;33.97;6.28;;;21.60;99.90;;;;;;5070348;28;20411;-76
2020/12/15 11:49:14;;;;;;;36.00;6.93;;;21.50;99.90;;;;;;5072740;28;20060;-77
2020/12/15 11:51:41;;;;;;;34.50;7.55;;;21.50;99.90;;;;;;5063690;28;20024;-76
2020/12/15 11:54:09;;;;;;;37.72;6.32;;;21.50;99.90;;;;;;5053018;28;20039;-76
2020/12/15 11:56:36;;;;;;;44.90;6.00;;;21.60;99.90;;;;;;5071589;28;20072;-76
2020/12/15 11:59:04;;;;;;;40.83;9.18;;;21.60;99.90;;;;;;5074079;23;20139;-76
2020/12/15 12:01:33;;;;;;;46.63;8.85;;;21.60;99.90;;;;;;5057172;28;20025;-76
2020/12/15 12:04:00;;;;;;;45.22;7.72;;;21.50;99.90;;;;;;5051522;28;20036;-76
2020/12/15 12:06:34;;;;;;;50.58;9.48;;;21.60;99.90;;;;;;5056696;28;20048;-76
2020/12/15 12:09:02;;;;;;;51.53;8.98;;;21.60;99.90;;;;;;5042945;28;20029;-76
2020/12/15 12:11:30;;;;;;;45.60;7.07;;;21.60;99.90;;;;;;5046811;28;20021;-76
2020/12/15 12:13:57;;;;;;;47.70;9.15;;;21.60;99.90;;;;;;5045589;28;20025;-77
2020/12/15 12:16:24;;;;;;;45.58;7.55;;;21.60;99.90;;;;;;5051796;28;20036;-77
2020/12/15 12:18:52;;;;;;;53.88;8.80;;;21.60;99.90;;;;;;5046047;28;20032;-77
2020/12/15 12:21:19;;;;;;;45.25;8.30;;;21.60;99.90;;;;;;5048330;28;20040;-76
2020/12/15 12:23:46;;;;;;;48.03;8.43;;;21.60;99.90;;;;;;5060646;28;20171;-75
2020/12/15 12:26:16;;;;;;;47.95;7.18;;;21.50;99.90;;;;;;5044834;28;20029;-76
2020/12/15 12:28:44;;;;;;;43.47;7.82;;;21.50;99.90;;;;;;5051874;28;20033;-77
2020/12/15 12:31:14;;;;;;;46.67;7.68;;;21.50;99.90;;;;;;5051824;28;20482;-77
2020/12/15 12:33:41;;;;;;;51.05;9.75;;;21.50;99.90;;;;;;5046504;28;20028;-77
2020/12/15 12:36:09;;;;;;;53.45;7.45;;;21.50;99.90;;;;;;5037645;28;20050;-77
2020/12/15 12:38:36;;;;;;;40.60;7.20;;;21.50;99.90;;;;;;5045272;28;20036;-76
2020/12/15 12:41:03;;;;;;;41.53;8.52;;;21.50;99.90;;;;;;5052519;28;20020;-77
2020/12/15 12:43:31;;;;;;;46.00;7.40;;;21.50;99.90;;;;;;5055679;28;20020;-77
2020/12/15 12:45:58;;;;;;;53.80;7.75;;;21.50;99.90;;;;;;5044266;28;20025;-76
2020/12/15 12:48:26;;;;;;;47.58;8.57;;;21.60;99.90;;;;;;5070433;28;20034;-76
2020/12/15 12:50:54;;;;;;;50.13;7.53;;;21.50;99.90;;;;;;5052840;28;20119;-75